Time;durP1;ratioP1;P1;durP2;ratioP2;P2;SDS_P1;SDS_P2;PMS_P1;PMS_P2;Temp;Humidity;BMP_temperature;BMP_pressure;BME280_temperature;BME280_humidity;BME280_pressure;Samples;Min_cycle;Max_cycle;Signal;HPM_P1;HPM_P2
2022/10/12 00:02:02;;;;;;;5.95;1.65;;;8.40;99.90;;;;;;5051217;28;20405;-70
2022/10/12 00:04:28;;;;;;;4.40;1.92;;;8.40;99.90;;;;;;5051260;28;20040;-70
2022/10/12 00:06:54;;;;;;;2.42;2.05;;;8.40;99.90;;;;;;5051348;28;20453;-70
2022/10/12 00:09:19;;;;;;;2.35;1.63;;;8.50;99.90;;;;;;5051536;28;20445;-70
2022/10/12 00:11:45;;;;;;;3.38;1.75;;;8.40;99.90;;;;;;5051578;28;20076;-70
2022/10/12 00:14:10;;;;;;;2.47;1.80;;;8.50;99.90;;;;;;5051118;28;20072;-70
2022/10/12 00:16:36;;;;;;;1.80;1.65;;;8.40;99.90;;;;;;5051366;28;20116;-70
2022/10/12 00:19:01;;;;;;;2.08;1.88;;;8.40;99.90;;;;;;5051183;28;20041;-70
2022/10/12 00:21:28;;;;;;;2.75;2.25;;;8.40;99.90;;;;;;5051295;28;20510;-70
2022/10/12 00:23:59;;;;;;;5.43;2.20;;;8.50;99.90;;;;;;5049679;28;20094;-70
2022/10/12 00:26:26;;;;;;;3.50;2.35;;;8.30;99.90;;;;;;5051482;28;20037;-70
2022/10/12 00:28:57;;;;;;;3.33;2.50;;;8.30;99.90;;;;;;5051255;28;20048;-70
2022/10/12 00:31:23;;;;;;;3.88;2.40;;;8.20;99.90;;;;;;5050277;28;20398;-70
2022/10/12 00:33:49;;;;;;;3.10;2.50;;;8.40;99.90;;;;;;5050929;28;20398;-70
2022/10/12 00:36:21;;;;;;;3.03;2.70;;;8.20;99.90;;;;;;5049840;28;20037;-70
2022/10/12 00:38:48;;;;;;;3.05;2.72;;;8.40;99.90;;;;;;5049801;28;20052;-70
2022/10/12 00:41:15;;;;;;;5.22;2.70;;;8.30;99.90;;;;;;5051300;28;20037;-70
2022/10/12 00:43:42;;;;;;;3.50;2.90;;;8.30;99.90;;;;;;5032916;28;20064;-70
2022/10/12 00:46:37;;;;;;;3.35;2.40;;;8.20;99.90;;;;;;5049798;28;20041;-70
2022/10/12 00:49:11;;;;;;;4.47;2.38;;;8.10;99.90;;;;;;5051189;28;20056;-70
2022/10/12 00:51:40;;;;;;;3.38;2.47;;;8.10;99.90;;;;;;5050054;28;20033;-70
2022/10/12 00:54:10;;;;;;;3.42;2.25;;;8.10;99.90;;;;;;5049393;28;20045;-70
2022/10/12 00:56:38;;;;;;;4.68;2.50;;;8.10;99.90;;;;;;5050931;28;20123;-70
2022/10/12 00:59:09;;;;;;;3.75;2.45;;;8.10;99.90;;;;;;5054392;28;20041;-70
2022/10/12 01:01:35;;;;;;;5.63;2.22;;;8.00;99.90;;;;;;5036718;28;20040;-70
2022/10/12 01:04:01;;;;;;;4.90;2.75;;;7.90;99.90;;;;;;5052927;28;20518;-70
2022/10/12 01:06:28;;;;;;;5.65;2.47;;;8.00;99.90;;;;;;5053333;28;20059;-70
2022/10/12 01:08:55;;;;;;;4.15;2.30;;;7.90;99.90;;;;;;5054366;28;20159;-70
2022/10/12 01:11:20;;;;;;;3.45;2.15;;;8.00;99.90;;;;;;5053036;28;20087;-70
2022/10/12 01:13:46;;;;;;;3.05;1.63;;;8.00;99.90;;;;;;5053988;28;20048;-70
2022/10/12 01:16:27;;;;;;;3.17;1.90;;;7.90;99.90;;;;;;5054313;28;20041;-70
2022/10/12 01:19:15;;;;;;;2.30;2.00;;;7.80;99.90;;;;;;5052732;28;20037;-70
2022/10/12 01:21:52;;;;;;;2.50;2.00;;;7.70;99.90;;;;;;5054106;28;20041;-70
2022/10/12 01:24:51;;;;;;;2.28;1.80;;;7.70;99.90;;;;;;5054106;28;20097;-70
2022/10/12 01:27:34;;;;;;;3.00;2.33;;;7.70;99.90;;;;;;5052789;28;20076;-70
2022/10/12 01:30:23;;;;;;;3.37;2.00;;;7.50;99.90;;;;;;5054105;28;20049;-70
2022/10/12 01:32:56;;;;;;;5.22;3.10;;;7.50;99.90;;;;;;5053847;28;20298;-70
2022/10/12 01:35:36;;;;;;;4.22;3.42;;;7.60;99.90;;;;;;5054063;28;20051;-70
2022/10/12 01:38:23;;;;;;;4.05;2.50;;;7.50;99.90;;;;;;5052548;28;20087;-70
2022/10/12 01:41:10;;;;;;;3.40;2.45;;;7.60;99.90;;;;;;5053720;28;20468;-70
2022/10/12 01:43:41;;;;;;;5.45;2.33;;;7.60;99.90;;;;;;5053756;28;20063;-70
2022/10/12 01:46:15;;;;;;;2.20;2.00;;;7.50;99.90;;;;;;5053831;28;20037;-70
2022/10/12 01:48:44;;;;;;;2.33;2.13;;;7.50;99.90;;;;;;5053676;28;20048;-70
2022/10/12 01:51:15;;;;;;;3.92;1.90;;;7.60;99.90;;;;;;5053364;28;20617;-70
2022/10/12 01:54:04;;;;;;;4.70;2.33;;;7.60;99.90;;;;;;5053531;28;20108;-70
2022/10/12 01:56:42;;;;;;;2.58;2.08;;;7.60;99.90;;;;;;5053642;28;20040;-70
2022/10/12 01:59:14;;;;;;;4.50;1.80;;;7.40;99.90;;;;;;5052453;28;20088;-70
2022/10/12 02:01:52;;;;;;;2.63;2.20;;;7.50;99.90;;;;;;5053374;28;20041;-70
2022/10/12 02:04:18;;;;;;;3.53;2.38;;;7.40;99.90;;;;;;5053293;28;20040;-70
2022/10/12 02:06:51;;;;;;;3.03;2.28;;;7.50;99.90;;;;;;5053457;28;20041;-70
2022/10/12 02:09:26;;;;;;;;;;;7.30;99.90;;;;;;5053728;28;20103;-70
2022/10/12 02:11:54;;;;;;;;;;;7.50;99.90;;;;;;5053678;28;19916;-70
2022/10/12 02:14:44;;;;;;;4.60;2.50;;;7.30;99.90;;;;;;5053126;28;20310;-70
2022/10/12 02:17:13;;;;;;;3.00;2.70;;;7.40;99.90;;;;;;5047173;28;20048;-70
2022/10/12 02:19:43;;;;;;;5.28;2.83;;;7.30;99.90;;;;;;5052964;28;20083;-71
2022/10/12 02:22:10;;;;;;;3.60;2.67;;;7.40;99.90;;;;;;5051721;28;20033;-71
2022/10/12 02:24:39;;;;;;;4.53;2.60;;;7.40;99.90;;;;;;5051413;28;20048;-71
2022/10/12 02:27:07;;;;;;;5.47;2.83;;;7.50;99.90;;;;;;5053134;28;20138;-71
2022/10/12 02:29:38;;;;;;;4.18;3.15;;;7.30;99.90;;;;;;5052793;28;20106;-71
2022/10/12 02:32:36;;;;;;;3.83;2.50;;;7.30;99.90;;;;;;5052759;28;20533;-71
2022/10/12 02:35:27;;;;;;;8.30;2.72;;;7.50;99.90;;;;;;5052716;28;20124;-71
2022/10/12 02:38:14;;;;;;;4.32;2.75;;;7.40;99.90;;;;;;5052822;28;20044;-70
2022/10/12 02:40:54;;;;;;;4.28;2.60;;;7.50;99.90;;;;;;5052688;28;20402;-71
2022/10/12 02:43:44;;;;;;;3.88;2.50;;;7.60;99.90;;;;;;5052261;28;20521;-71
2022/10/12 02:46:10;;;;;;;7.65;3.05;;;7.60;99.90;;;;;;5052772;28;20397;-70
2022/10/12 02:48:38;;;;;;;5.57;3.10;;;7.50;99.90;;;;;;5052495;28;20037;-71
2022/10/12 02:51:05;;;;;;;8.20;2.90;;;7.40;99.90;;;;;;5052520;28;20048;-71
2022/10/12 02:53:31;;;;;;;6.65;3.05;;;7.60;99.90;;;;;;5051047;28;20040;-71
2022/10/12 02:56:04;;;;;;;3.80;2.58;;;7.60;99.90;;;;;;5052338;28;20487;-71
2022/10/12 02:58:30;;;;;;;5.72;2.72;;;7.50;99.90;;;;;;5051011;28;20037;-71
2022/10/12 03:00:55;;;;;;;5.90;3.28;;;7.50;99.90;;;;;;5050997;28;20048;-71
2022/10/12 03:03:21;;;;;;;5.80;2.70;;;7.60;99.90;;;;;;5050677;28;20052;-70
2022/10/12 03:05:46;;;;;;;4.78;3.33;;;7.60;99.90;;;;;;5034534;28;20402;-71
2022/10/12 03:08:12;;;;;;;5.95;3.08;;;7.70;99.90;;;;;;5034298;28;20102;-70
2022/10/12 03:10:37;;;;;;;7.35;2.90;;;7.70;99.90;;;;;;5050828;28;20067;-71
2022/10/12 03:13:03;;;;;;;8.25;2.90;;;7.60;99.90;;;;;;5052014;28;20025;-70
2022/10/12 03:15:29;;;;;;;5.28;2.95;;;7.80;99.90;;;;;;5052137;28;20115;-70
2022/10/12 03:17:54;;;;;;;5.40;3.20;;;7.60;99.90;;;;;;5052049;28;20041;-71
2022/10/12 03:20:20;;;;;;;4.68;2.47;;;7.70;99.90;;;;;;5051404;28;20124;-71
2022/10/12 03:22:46;;;;;;;7.70;2.90;;;7.70;99.90;;;;;;5051545;28;20068;-71
2022/10/12 03:25:11;;;;;;;6.30;3.38;;;7.60;99.90;;;;;;5052087;28;20475;-71
2022/10/12 03:27:37;;;;;;;5.15;2.80;;;7.70;99.90;;;;;;5051767;28;20513;-70
2022/10/12 03:30:03;;;;;;;7.35;3.15;;;7.70;99.90;;;;;;5050605;28;20124;-70
2022/10/12 03:32:28;;;;;;;5.72;3.00;;;7.80;99.90;;;;;;5051616;28;20043;-71
2022/10/12 03:34:54;;;;;;;7.05;3.78;;;7.60;99.90;;;;;;5051760;28;20119;-71
2022/10/12 03:37:19;;;;;;;5.85;2.92;;;7.80;99.90;;;;;;5051599;28;20033;-71
2022/10/12 03:39:45;;;;;;;7.18;2.67;;;7.60;99.90;;;;;;5051886;28;20052;-71
2022/10/12 03:42:11;;;;;;;6.85;2.42;;;7.50;99.90;;;;;;5051810;28;20371;-71
2022/10/12 03:44:36;;;;;;;5.95;2.60;;;7.60;99.90;;;;;;5051598;28;20086;-70
2022/10/12 03:47:02;;;;;;;4.38;2.50;;;7.50;99.90;;;;;;5051675;28;20120;-71
2022/10/12 03:49:27;;;;;;;9.30;3.28;;;7.60;99.90;;;;;;5051574;28;20033;-71
2022/10/12 03:51:53;;;;;;;5.68;3.40;;;7.60;99.90;;;;;;5051541;28;20623;-70
2022/10/12 03:54:19;;;;;;;8.98;3.13;;;7.40;99.90;;;;;;5051485;28;20583;-71
2022/10/12 03:56:44;;;;;;;6.13;3.10;;;7.50;99.90;;;;;;5051615;28;20033;-71
2022/10/12 03:59:10;;;;;;;5.78;2.55;;;7.40;99.90;;;;;;5050391;28;20041;-70
2022/10/12 04:01:35;;;;;;;5.20;2.72;;;7.60;99.90;;;;;;5051605;28;20116;-70
2022/10/12 04:04:01;;;;;;;6.20;2.90;;;7.40;99.90;;;;;;5051272;28;20051;-71
2022/10/12 04:06:26;;;;;;;4.70;2.67;;;7.50;99.90;;;;;;5051413;28;20087;-71
2022/10/12 04:08:52;;;;;;;5.35;3.30;;;7.50;99.90;;;;;;5051249;28;20114;-71
2022/10/12 04:11:19;;;;;;;6.88;3.00;;;7.40;99.90;;;;;;5051402;28;20540;-70
2022/10/12 04:13:44;;;;;;;7.82;2.50;;;7.40;99.90;;;;;;5051107;28;20098;-71
2022/10/12 04:16:10;;;;;;;3.95;2.63;;;7.40;99.90;;;;;;5051478;28;20037;-71
2022/10/12 04:18:35;;;;;;;11.55;4.63;;;7.40;99.90;;;;;;5051130;28;20041;-70
2022/10/12 04:21:02;;;;;;;6.00;2.78;;;7.50;99.90;;;;;;5051324;28;20033;-70
2022/10/12 04:23:28;;;;;;;4.63;2.85;;;7.50;99.90;;;;;;5051238;28;20220;-71
2022/10/12 04:25:53;;;;;;;10.25;3.00;;;7.40;99.90;;;;;;5051317;28;20141;-70
2022/10/12 04:28:19;;;;;;;8.32;3.65;;;7.50;99.90;;;;;;5050346;28;20498;-70
2022/10/12 04:30:45;;;;;;;9.05;3.50;;;7.40;99.90;;;;;;5031355;28;20045;-71
2022/10/12 04:33:10;;;;;;;8.25;3.80;;;7.60;99.90;;;;;;5034491;28;20107;-71
2022/10/12 04:35:36;;;;;;;7.53;3.17;;;7.40;99.90;;;;;;5035090;28;20038;-71
2022/10/12 04:38:02;;;;;;;9.10;3.97;;;7.40;99.90;;;;;;5035382;28;20041;-70
2022/10/12 04:40:27;;;;;;;9.65;3.75;;;7.40;99.90;;;;;;5035156;28;20042;-70
2022/10/12 04:42:54;;;;;;;8.82;5.25;;;7.50;99.90;;;;;;5034788;28;20495;-70
2022/10/12 04:45:20;;;;;;;8.10;4.68;;;7.50;99.90;;;;;;5035121;28;20041;-71
2022/10/12 04:47:45;;;;;;;7.57;4.10;;;7.60;99.90;;;;;;5035008;28;20034;-70
2022/10/12 04:50:11;;;;;;;11.10;4.78;;;7.50;99.90;;;;;;5034701;28;20044;-71
2022/10/12 04:52:36;;;;;;;9.55;4.75;;;7.60;99.90;;;;;;5034738;28;20064;-70
2022/10/12 04:55:02;;;;;;;13.27;4.70;;;7.70;99.90;;;;;;5034601;28;20061;-71
2022/10/12 04:57:28;;;;;;;10.02;4.85;;;7.60;99.90;;;;;;5034781;28;20034;-70
2022/10/12 04:59:53;;;;;;;15.27;6.15;;;7.40;99.90;;;;;;5034683;28;20099;-71
2022/10/12 05:02:19;;;;;;;8.48;6.03;;;7.60;99.90;;;;;;5034491;28;20541;-71
2022/10/12 05:04:44;;;;;;;10.40;5.53;;;7.50;99.90;;;;;;5034419;28;20038;-70
2022/10/12 05:07:10;;;;;;;11.85;5.03;;;7.50;99.90;;;;;;5034489;28;20043;-70
2022/10/12 05:09:35;;;;;;;13.30;5.30;;;7.50;99.90;;;;;;5034634;28;20147;-71
2022/10/12 05:12:01;;;;;;;13.50;5.68;;;7.60;99.90;;;;;;5034896;28;20120;-71
2022/10/12 05:14:26;;;;;;;11.52;5.80;;;7.50;99.90;;;;;;5034498;28;20513;-71
2022/10/12 05:16:51;;;;;;;7.68;5.60;;;7.50;99.90;;;;;;5034247;28;20052;-70
2022/10/12 05:19:17;;;;;;;11.93;5.47;;;7.60;99.90;;;;;;5034153;28;20119;-71
2022/10/12 05:21:42;;;;;;;16.52;6.32;;;7.70;99.90;;;;;;5034229;28;20037;-71
2022/10/12 05:24:09;;;;;;;12.77;6.22;;;7.60;99.90;;;;;;5033942;28;20392;-70
2022/10/12 05:26:35;;;;;;;11.45;5.70;;;7.50;99.90;;;;;;5034362;28;20590;-71
2022/10/12 05:29:00;;;;;;;12.32;5.82;;;7.60;99.90;;;;;;5034166;28;20092;-71
2022/10/12 05:31:26;;;;;;;17.98;7.15;;;7.60;99.90;;;;;;5034056;28;20045;-70
2022/10/12 05:33:51;;;;;;;10.43;5.35;;;7.40;99.90;;;;;;5033789;28;20045;-71
2022/10/12 05:36:17;;;;;;;12.70;5.55;;;7.50;99.90;;;;;;5032688;28;20050;-70
2022/10/12 05:38:42;;;;;;;10.38;5.53;;;7.60;99.90;;;;;;5034067;28;20103;-71
2022/10/12 05:41:08;;;;;;;13.32;5.88;;;7.60;99.90;;;;;;5034028;28;20050;-70
2022/10/12 05:43:33;;;;;;;7.88;5.38;;;7.50;99.90;;;;;;5033340;28;20494;-71
2022/10/12 05:45:59;;;;;;;11.55;5.60;;;7.40;99.90;;;;;;5033708;28;20520;-70
2022/10/12 05:48:24;;;;;;;19.38;6.97;;;7.40;99.90;;;;;;5033683;28;20102;-71
2022/10/12 05:50:53;;;;;;;14.95;6.38;;;7.50;99.90;;;;;;5033612;28;20052;-71
2022/10/12 05:53:20;;;;;;;11.90;6.32;;;7.20;99.90;;;;;;5033429;28;20052;-71
2022/10/12 05:55:57;;;;;;;14.27;7.07;;;7.40;99.90;;;;;;5033825;28;20144;-71
2022/10/12 05:58:24;;;;;;;13.07;6.35;;;7.50;99.90;;;;;;5033539;28;20091;-71
2022/10/12 06:00:49;;;;;;;12.05;7.20;;;7.40;99.90;;;;;;5033341;28;20053;-70
2022/10/12 06:03:15;;;;;;;12.23;6.28;;;7.40;99.90;;;;;;5032970;28;20034;-71
2022/10/12 06:05:41;;;;;;;9.48;6.97;;;7.20;99.90;;;;;;5033585;28;20103;-70
2022/10/12 06:08:07;;;;;;;12.07;6.95;;;7.30;99.90;;;;;;5033474;28;20502;-70
2022/10/12 06:10:34;;;;;;;13.40;7.32;;;7.20;99.90;;;;;;5033371;28;20045;-69
2022/10/12 06:13:00;;;;;;;8.65;6.93;;;7.10;99.90;;;;;;5032954;28;20633;-70
2022/10/12 06:15:26;;;;;;;19.17;9.15;;;7.30;99.90;;;;;;5033263;28;20116;-70
2022/10/12 06:17:51;;;;;;;17.30;8.00;;;7.20;99.90;;;;;;5032920;28;20072;-70
2022/10/12 06:20:17;;;;;;;17.42;7.97;;;7.30;99.90;;;;;;5033009;28;20049;-69
2022/10/12 06:22:42;;;;;;;16.02;8.50;;;7.20;99.90;;;;;;5032975;28;20510;-70
2022/10/12 06:25:08;;;;;;;12.98;8.20;;;7.20;99.90;;;;;;5035700;28;20033;-69
2022/10/12 06:27:34;;;;;;;12.27;7.15;;;7.30;99.90;;;;;;5050531;28;20049;-69
2022/10/12 06:29:59;;;;;;;13.85;7.90;;;7.30;99.90;;;;;;5052689;28;20033;-69
2022/10/12 06:32:25;;;;;;;19.17;8.13;;;7.20;99.90;;;;;;5052403;28;20114;-68
2022/10/12 06:34:50;;;;;;;14.48;8.93;;;7.30;99.90;;;;;;5052744;28;20090;-68
2022/10/12 06:37:16;;;;;;;16.35;8.30;;;7.20;99.90;;;;;;5051962;28;20033;-68
2022/10/12 06:39:41;;;;;;;12.00;8.13;;;7.30;99.90;;;;;;5052721;28;20041;-68
2022/10/12 06:42:07;;;;;;;13.52;7.25;;;7.20;99.90;;;;;;5052760;28;20399;-68
2022/10/12 06:44:33;;;;;;;17.35;8.60;;;7.10;99.90;;;;;;5052224;28;20029;-68
2022/10/12 06:46:59;;;;;;;14.25;8.93;;;7.30;99.90;;;;;;5052284;28;20095;-68
2022/10/12 06:49:24;;;;;;;12.90;8.43;;;7.30;99.90;;;;;;5052408;28;20048;-68
2022/10/12 06:51:50;;;;;;;19.65;8.65;;;7.20;99.90;;;;;;5052603;28;20094;-68
2022/10/12 06:54:15;;;;;;;10.48;7.93;;;7.40;99.90;;;;;;5051318;28;20135;-68
2022/10/12 06:56:42;;;;;;;18.83;8.48;;;7.40;99.90;;;;;;5052249;28;20486;-68
2022/10/12 06:59:10;;;;;;;16.20;8.82;;;7.60;99.90;;;;;;5052236;28;20048;-68
2022/10/12 07:01:35;;;;;;;12.40;8.02;;;7.70;99.90;;;;;;5052104;28;20029;-68
2022/10/12 07:04:01;;;;;;;14.05;8.43;;;7.90;99.90;;;;;;5052096;28;20448;-68
2022/10/12 07:06:26;;;;;;;18.67;9.35;;;8.10;99.90;;;;;;5052281;28;20040;-68
2022/10/12 07:08:53;;;;;;;19.00;9.38;;;8.20;99.90;;;;;;5052184;28;20400;-68
2022/10/12 07:11:19;;;;;;;13.32;8.93;;;8.30;99.90;;;;;;5050749;28;20045;-68
2022/10/12 07:13:44;;;;;;;15.27;9.20;;;8.50;99.90;;;;;;5051693;28;20039;-68
2022/10/12 07:16:10;;;;;;;20.10;8.68;;;8.50;99.90;;;;;;5051859;28;20090;-68
2022/10/12 07:18:35;;;;;;;17.77;8.02;;;8.70;99.90;;;;;;5051834;28;20036;-68
2022/10/12 07:21:02;;;;;;;14.10;9.65;;;8.80;99.90;;;;;;5051884;28;20041;-69
2022/10/12 07:23:30;;;;;;;14.23;9.27;;;8.90;99.90;;;;;;5051640;28;20044;-68
2022/10/12 07:25:56;;;;;;;10.20;7.72;;;9.10;99.90;;;;;;5050555;28;20087;-68
2022/10/12 07:28:22;;;;;;;18.42;9.20;;;9.20;99.90;;;;;;5050792;28;20053;-68
2022/10/12 07:30:48;;;;;;;17.10;8.68;;;9.20;99.90;;;;;;5051572;28;20498;-68
2022/10/12 07:33:14;;;;;;;16.20;8.90;;;9.40;99.90;;;;;;5051678;28;20052;-68
2022/10/12 07:35:39;;;;;;;17.30;9.00;;;9.60;99.90;;;;;;5051902;28;20430;-68
2022/10/12 07:38:05;;;;;;;18.60;9.32;;;9.60;99.90;;;;;;5051760;28;20124;-68
2022/10/12 07:40:31;;;;;;;19.38;9.23;;;9.80;99.90;;;;;;5050456;28;20037;-66
2022/10/12 07:42:57;;;;;;;28.42;9.60;;;10.00;99.90;;;;;;5042414;28;20443;-65
2022/10/12 07:45:23;;;;;;;13.00;8.60;;;10.30;99.90;;;;;;5041958;28;20090;-65
2022/10/12 07:47:49;;;;;;;12.77;8.70;;;10.50;99.90;;;;;;5031508;28;20431;-65
2022/10/12 07:50:14;;;;;;;15.15;8.30;;;10.80;99.90;;;;;;5031636;28;20056;-66
2022/10/12 07:52:40;;;;;;;16.90;9.30;;;11.00;99.90;;;;;;5031280;28;20056;-65
2022/10/12 07:55:06;;;;;;;16.52;8.95;;;11.00;99.90;;;;;;5031673;28;20041;-66
2022/10/12 07:57:32;;;;;;;16.70;8.13;;;11.00;99.90;;;;;;5031116;28;20045;-65
2022/10/12 07:59:58;;;;;;;12.75;8.27;;;11.10;99.90;;;;;;5041396;28;20384;-65
2022/10/12 08:02:23;;;;;;;14.68;9.18;;;11.20;99.90;;;;;;5045233;28;20044;-65
2022/10/12 08:04:50;;;;;;;16.98;9.20;;;11.30;99.90;;;;;;5051573;28;20029;-65
2022/10/12 08:07:15;;;;;;;17.15;8.40;;;11.40;99.90;;;;;;5055459;28;20045;-66
2022/10/12 08:09:41;;;;;;;15.95;8.05;;;11.40;99.90;;;;;;5055553;28;20449;-66
2022/10/12 08:12:08;;;;;;;18.65;8.65;;;11.40;99.90;;;;;;5055348;28;20544;-69
2022/10/12 08:14:34;;;;;;;17.55;9.18;;;11.40;99.90;;;;;;5055069;28;20045;-69
2022/10/12 08:16:59;;;;;;;15.70;9.43;;;11.40;99.90;;;;;;5055469;28;20048;-69
2022/10/12 08:19:25;;;;;;;16.55;8.90;;;11.30;99.90;;;;;;5053851;28;20045;-69
2022/10/12 08:21:51;;;;;;;13.93;8.98;;;11.30;99.90;;;;;;5054272;28;20521;-69
2022/10/12 08:24:17;;;;;;;15.32;9.00;;;11.40;99.90;;;;;;5053670;28;20112;-69
2022/10/12 08:26:42;;;;;;;19.45;9.90;;;11.40;99.90;;;;;;5055243;28;20167;-69
2022/10/12 08:29:09;;;;;;;15.85;8.63;;;11.40;99.90;;;;;;5054921;28;20044;-69
2022/10/12 08:31:35;;;;;;;16.60;8.85;;;11.60;99.90;;;;;;5055038;28;20048;-69
2022/10/12 08:34:00;;;;;;;17.63;8.57;;;11.60;99.90;;;;;;5054878;28;20449;-69
2022/10/12 08:36:26;;;;;;;13.57;8.73;;;11.60;99.90;;;;;;5053902;28;20040;-69
2022/10/12 08:38:54;;;;;;;14.25;7.35;;;11.80;99.90;;;;;;5054804;28;20033;-69
2022/10/12 08:41:38;;;;;;;14.20;7.78;;;11.80;99.90;;;;;;5054845;28;20116;-69
2022/10/12 08:44:41;;;;;;;14.13;7.68;;;12.00;99.90;;;;;;5054639;28;20037;-69
2022/10/12 08:47:19;;;;;;;15.50;7.10;;;12.10;99.90;;;;;;5054737;28;20482;-69
2022/10/12 08:49:47;;;;;;;14.48;7.35;;;12.10;99.90;;;;;;5054573;28;20040;-69
2022/10/12 08:52:27;;;;;;;20.65;7.50;;;12.00;99.90;;;;;;5054843;28;20052;-69
2022/10/12 08:54:54;;;;;;;13.57;6.88;;;12.00;99.90;;;;;;5054841;28;20102;-69
2022/10/12 08:57:20;;;;;;;12.57;6.57;;;12.00;99.90;;;;;;5054556;28;20052;-69
2022/10/12 08:59:46;;;;;;;15.75;6.13;;;12.00;99.90;;;;;;5054510;28;20491;-69
2022/10/12 09:02:44;;;;;;;18.80;7.00;;;12.00;99.90;;;;;;5054442;28;20048;-69
2022/10/12 09:05:32;;;;;;;11.25;7.18;;;11.90;99.90;;;;;;5053315;28;20678;-69
2022/10/12 09:08:06;;;;;;;8.75;5.63;;;11.90;99.90;;;;;;5054535;28;20079;-69
2022/10/12 09:10:45;;;;;;;11.40;5.45;;;12.00;99.90;;;;;;5054351;28;20403;-69
2022/10/12 09:13:25;;;;;;;13.05;5.82;;;11.90;99.90;;;;;;5054218;28;20434;-69
2022/10/12 09:15:58;;;;;;;13.48;5.78;;;12.00;99.90;;;;;;5053090;28;20116;-69
2022/10/12 09:18:36;;;;;;;13.32;4.78;;;12.00;99.90;;;;;;5053526;28;20047;-69
2022/10/12 09:21:05;;;;;;;14.18;6.82;;;11.90;99.90;;;;;;5054264;28;20117;-69
2022/10/12 09:23:37;;;;;;;13.82;5.70;;;12.00;99.90;;;;;;5053988;28;20041;-69
2022/10/12 09:26:34;;;;;;;15.57;5.45;;;12.00;99.90;;;;;;5054293;28;20518;-69
2022/10/12 09:29:01;;;;;;;13.85;5.97;;;12.10;99.90;;;;;;5046863;28;20110;-69
2022/10/12 09:31:45;;;;;;;12.85;5.10;;;12.10;99.90;;;;;;5054032;28;20056;-69
2022/10/12 09:34:11;;;;;;;12.68;4.10;;;12.10;99.90;;;;;;5053782;28;20037;-69
2022/10/12 09:36:39;;;;;;;9.73;4.60;;;12.30;99.90;;;;;;5053961;28;20056;-69
2022/10/12 09:39:17;;;;;;;18.70;9.90;;;12.30;99.90;;;;;;5053784;28;20091;-69
2022/10/12 09:41:44;;;;;;;16.48;7.22;;;12.30;99.90;;;;;;5053871;28;20036;-69
2022/10/12 09:44:41;;;;;;;11.27;6.35;;;12.40;99.90;;;;;;5053416;28;20106;-69
2022/10/12 09:47:27;;;;;;;13.27;6.20;;;12.40;99.90;;;;;;5053817;28;20083;-69
2022/10/12 09:50:05;;;;;;;13.43;5.97;;;12.50;99.90;;;;;;5053490;28;20059;-69
2022/10/12 09:52:34;;;;;;;15.20;5.38;;;12.50;99.90;;;;;;5053234;28;20387;-69
2022/10/12 09:55:03;;;;;;;14.32;4.45;;;12.70;99.90;;;;;;5053647;28;20033;-69
2022/10/12 09:57:38;;;;;;;15.30;5.82;;;12.70;99.90;;;;;;5053391;28;20049;-69
2022/10/12 10:00:21;;;;;;;11.52;5.28;;;12.90;99.90;;;;;;5053329;28;20044;-69
2022/10/12 10:02:49;;;;;;;13.43;5.05;;;12.90;99.90;;;;;;5052941;28;20041;-69
2022/10/12 10:05:41;;;;;;;11.38;4.50;;;13.00;99.90;;;;;;5052294;28;20037;-69
2022/10/12 10:08:13;;;;;;;10.75;3.85;;;13.00;99.90;;;;;;5051201;28;20115;-69
2022/10/12 10:10:54;;;;;;;10.93;3.80;;;13.00;99.90;;;;;;5053253;28;20056;-69
2022/10/12 10:13:22;;;;;;;11.32;3.67;;;13.10;99.90;;;;;;5052902;28;20049;-69
2022/10/12 10:15:51;;;;;;;13.38;3.30;;;13.20;99.90;;;;;;5053322;28;20503;-69
2022/10/12 10:18:56;;;;;;;11.82;4.45;;;13.20;99.90;;;;;;5053126;28;20498;-69
2022/10/12 10:21:34;;;;;;;8.88;3.10;;;13.20;99.90;;;;;;5052603;28;20045;-69
2022/10/12 10:24:02;;;;;;;11.35;3.00;;;13.30;99.90;;;;;;5052917;28;20037;-69
2022/10/12 10:26:30;;;;;;;12.05;3.30;;;13.30;99.90;;;;;;5052904;28;20037;-69
2022/10/12 10:29:16;;;;;;;10.85;3.78;;;13.40;99.90;;;;;;5051715;28;20418;-69
2022/10/12 10:31:45;;;;;;;11.85;3.25;;;13.40;99.90;;;;;;5052911;28;20494;-69
2022/10/12 10:34:29;;;;;;;7.97;3.05;;;13.30;99.90;;;;;;5052657;28;20562;-69
2022/10/12 10:37:20;;;;;;;8.82;3.22;;;13.40;99.90;;;;;;5052758;28;20044;-69
2022/10/12 10:40:04;;;;;;;7.97;3.35;;;13.40;99.90;;;;;;5052698;28;20242;-69
2022/10/12 10:42:52;;;;;;;12.40;3.03;;;13.60;99.90;;;;;;5052379;28;20464;-69
2022/10/12 10:45:49;;;;;;;7.85;2.40;;;13.60;99.90;;;;;;5052752;28;20039;-69
2022/10/12 10:48:28;;;;;;;10.55;2.60;;;13.70;99.90;;;;;;5052493;28;20102;-69
2022/10/12 10:50:59;;;;;;;9.43;3.05;;;13.60;99.90;;;;;;5051128;28;20094;-69
2022/10/12 10:53:46;;;;;;;10.68;3.20;;;13.70;99.90;;;;;;5051132;28;20379;-69
2022/10/12 10:56:16;;;;;;;9.00;2.78;;;13.80;98.60;;;;;;5052241;28;20087;-69
2022/10/12 10:59:04;;;;;;;12.93;2.80;;;13.80;99.30;;;;;;5052163;28;20037;-70
2022/10/12 11:01:49;;;;;;;9.82;3.17;;;13.80;98.90;;;;;;5052333;28;20125;-69
2022/10/12 11:04:30;;;;;;;13.45;3.20;;;13.80;99.40;;;;;;5051981;28;20033;-69
2022/10/12 11:07:00;;;;;;;11.32;4.40;;;13.90;99.00;;;;;;5052262;28;20083;-69
2022/10/12 11:09:39;;;;;;;16.35;7.13;;;14.00;98.80;;;;;;5051942;28;20575;-69
2022/10/12 11:12:11;;;;;;;28.55;10.77;;;14.00;98.00;;;;;;5052357;28;20037;-70
2022/10/12 11:14:46;;;;;;;9.73;4.75;;;14.00;98.20;;;;;;5051984;28;20033;-69
2022/10/12 11:17:24;;;;;;;11.55;3.08;;;14.00;98.10;;;;;;5052043;28;20037;-69
2022/10/12 11:19:57;;;;;;;9.55;2.65;;;14.10;97.60;;;;;;5050493;28;20124;-69
2022/10/12 11:22:42;;;;;;;12.57;3.30;;;14.10;97.70;;;;;;5051922;28;20116;-69
2022/10/12 11:25:43;;;;;;;13.75;4.25;;;14.10;97.80;;;;;;5052030;28;20041;-69
2022/10/12 11:28:14;;;;;;;8.80;4.07;;;14.10;97.30;;;;;;4984558;28;20054;-69
2022/10/12 11:30:45;;;;;;;9.32;3.15;;;14.10;97.60;;;;;;5031712;28;20033;-69
2022/10/12 11:33:18;;;;;;;10.30;3.00;;;14.10;97.60;;;;;;5031505;28;20398;-69
2022/10/12 11:35:45;;;;;;;13.00;3.42;;;14.20;97.80;;;;;;5032044;28;20038;-69
2022/10/12 11:38:22;;;;;;;12.13;3.10;;;14.20;97.40;;;;;;5030485;28;20046;-69
2022/10/12 11:41:12;;;;;;;16.67;3.30;;;14.30;97.60;;;;;;5031228;28;20041;-69
2022/10/12 11:43:56;;;;;;;5.55;2.17;;;14.30;96.60;;;;;;5031657;28;20065;-71
2022/10/12 11:46:32;;;;;;;7.82;2.53;;;14.60;96.80;;;;;;5030383;28;20045;-70
2022/10/12 11:49:15;;;;;;;11.55;2.95;;;15.00;95.80;;;;;;5031496;28;20495;-71
2022/10/12 11:51:47;;;;;;;10.30;3.05;;;15.20;95.20;;;;;;5031884;28;20527;-69
2022/10/12 11:54:25;;;;;;;7.50;1.98;;;15.30;94.70;;;;;;5031454;28;20502;-69
2022/10/12 11:56:55;;;;;;;8.93;2.10;;;15.30;93.30;;;;;;5031439;28;20392;-69
2022/10/12 11:59:39;;;;;;;11.48;3.28;;;15.20;93.00;;;;;;5031528;28;20030;-70
2022/10/12 12:02:17;;;;;;;7.65;1.98;;;15.10;91.50;;;;;;5030204;28;20037;-70
2022/10/12 12:04:45;;;;;;;11.48;1.70;;;15.10;92.10;;;;;;5031589;28;20471;-70
2022/10/12 12:07:39;;;;;;;11.52;2.58;;;15.10;91.90;;;;;;5031327;28;20399;-70
2022/10/12 12:10:24;;;;;;;;;;;15.10;91.10;;;;;;5031614;28;20120;-70
2022/10/12 12:13:16;;;;;;;8.75;2.25;;;15.20;90.40;;;;;;5031217;28;19923;-70
2022/10/12 12:15:51;;;;;;;8.73;2.38;;;15.10;90.40;;;;;;5030351;28;20515;-70
2022/10/12 12:18:22;;;;;;;8.95;2.53;;;15.20;91.50;;;;;;5031158;28;20491;-70
2022/10/12 12:20:47;;;;;;;5.07;2.10;;;15.20;91.50;;;;;;5029828;28;20045;-70
2022/10/12 12:23:30;;;;;;;7.60;2.13;;;15.30;91.40;;;;;;5031125;28;20044;-70
2022/10/12 12:26:13;;;;;;;7.10;2.38;;;15.20;90.80;;;;;;5031310;28;20499;-70
2022/10/12 12:28:42;;;;;;;9.10;2.92;;;15.20;91.10;;;;;;5031237;28;20047;-70
2022/10/12 12:31:13;;;;;;;5.03;2.03;;;15.30;91.60;;;;;;5031161;28;20037;-70
2022/10/12 12:33:41;;;;;;;9.88;2.33;;;15.20;91.00;;;;;;5030977;28;20049;-70
2022/10/12 12:36:11;;;;;;;6.93;1.98;;;15.20;91.20;;;;;;5038906;28;20028;-70
2022/10/12 12:38:47;;;;;;;8.50;2.40;;;15.20;91.50;;;;;;5038173;28;20033;-70
2022/10/12 12:41:18;;;;;;;10.95;2.33;;;15.20;90.30;;;;;;5029746;28;20053;-70
2022/10/12 12:43:44;;;;;;;7.72;3.05;;;15.20;90.60;;;;;;5037272;28;20187;-70
2022/10/12 12:46:12;;;;;;;6.80;2.47;;;15.20;90.40;;;;;;5041549;28;20543;-70
2022/10/12 12:48:37;;;;;;;7.65;2.13;;;15.20;90.70;;;;;;5036057;28;20124;-70
2022/10/12 12:51:12;;;;;;;10.85;2.67;;;15.20;90.50;;;;;;5040493;28;20182;-70
2022/10/12 12:53:48;;;;;;;7.22;1.70;;;15.30;90.80;;;;;;5038668;28;20064;-71
2022/10/12 12:56:35;;;;;;;10.32;2.90;;;15.30;90.30;;;;;;5047975;28;20048;-71
2022/10/12 12:59:29;;;;;;;8.23;1.83;;;15.30;87.20;;;;;;5040479;28;20049;-70
2022/10/12 13:02:12;;;;;;;12.57;2.65;;;15.40;87.70;;;;;;5034452;28;20037;-70
2022/10/12 13:04:56;;;;;;;;;;;15.40;88.20;;;;;;5034950;28;20129;-70
2022/10/12 13:07:31;;;;;;;5.22;1.90;;;15.30;84.30;;;;;;5034554;28;19917;-70
2022/10/12 13:10:36;;;;;;;6.93;2.22;;;15.30;86.50;;;;;;5034395;28;20041;-71